TAF GCGM
GCGM 280800Z 2809/2909 02014KT 9999 SCT020 TX21/2814Z TN16/2906Z TEMPO 2809/2909 VRB15G28KT=
METAR GCGM
GCGM 280830Z VRB06KT 9999 SCT030 18/11 Q1025 RMK R09/VRB05KT ARP/03009KT 320V080=
GCGM 280800Z 04008KT 320V120 9999 FEW030 18/11 Q1025 RMK R09/05007KT 350V100 ARP/04007G19KT 340V110=
GCGM 280730Z 04007G18KT 330V120 9999 FEW030 17/10 Q1024 RMK R09/VRB04KT ARP/05007KT 000V110=
GCGM 280700Z 04011G24KT 320V100 9999 FEW030 17/10 Q1024 RMK R09/VRB05KT ARP/06007G17KT 010V120=
GCGM 280630Z AUTO 03011KT 340V080 CAVOK 17/10 Q1024 RMK R09/VRB04G15KT ARP/05009KT 340V120=
WC GCGM
WS GCGM
WV GCGM